sensor_id;sensor_type;location;lat;lon;timestamp;P1;durP1;ratioP1;P2;durP2;ratioP2
69319;SDS011;56467;53.502;49.248;2022-12-29T00:02:16;8.20;;;4.38;;
69319;SDS011;56467;53.502;49.248;2022-12-29T00:04:42;7.13;;;4.20;;
69319;SDS011;56467;53.502;49.248;2022-12-29T00:07:27;6.18;;;3.92;;
69319;SDS011;56467;53.502;49.248;2022-12-29T00:09:52;6.40;;;3.97;;
69319;SDS011;56467;53.502;49.248;2022-12-29T00:12:18;7.32;;;4.28;;
69319;SDS011;56467;53.502;49.248;2022-12-29T00:14:44;6.32;;;4.00;;
69319;SDS011;56467;53.502;49.248;2022-12-29T00:17:28;5.93;;;4.03;;
69319;SDS011;56467;53.502;49.248;2022-12-29T00:20:12;7.07;;;4.10;;
69319;SDS011;56467;53.502;49.248;2022-12-29T00:22:56;7.18;;;4.15;;
69319;SDS011;56467;53.502;49.248;2022-12-29T00:25:41;7.75;;;4.03;;
69319;SDS011;56467;53.502;49.248;2022-12-29T00:28:24;6.10;;;4.00;;
69319;SDS011;56467;53.502;49.248;2022-12-29T00:31:11;6.38;;;3.83;;
69319;SDS011;56467;53.502;49.248;2022-12-29T00:33:55;6.40;;;3.67;;
69319;SDS011;56467;53.502;49.248;2022-12-29T00:36:40;6.45;;;3.80;;
69319;SDS011;56467;53.502;49.248;2022-12-29T00:39:09;6.10;;;3.70;;
69319;SDS011;56467;53.502;49.248;2022-12-29T00:41:56;6.72;;;3.90;;
69319;SDS011;56467;53.502;49.248;2022-12-29T00:44:40;5.50;;;3.40;;
69319;SDS011;56467;53.502;49.248;2022-12-29T00:47:06;6.28;;;3.83;;
69319;SDS011;56467;53.502;49.248;2022-12-29T00:49:32;6.57;;;3.63;;
69319;SDS011;56467;53.502;49.248;2022-12-29T00:54:30;6.15;;;3.50;;
69319;SDS011;56467;53.502;49.248;2022-12-29T00:56:57;6.45;;;3.42;;
69319;SDS011;56467;53.502;49.248;2022-12-29T00:59:23;6.25;;;3.80;;
69319;SDS011;56467;53.502;49.248;2022-12-29T01:01:49;5.60;;;3.35;;
69319;SDS011;56467;53.502;49.248;2022-12-29T01:04:17;6.78;;;3.58;;
69319;SDS011;56467;53.502;49.248;2022-12-29T01:06:43;5.90;;;3.38;;
69319;SDS011;56467;53.502;49.248;2022-12-29T01:09:09;5.15;;;3.25;;
69319;SDS011;56467;53.502;49.248;2022-12-29T01:11:53;6.32;;;3.38;;
69319;SDS011;56467;53.502;49.248;2022-12-29T01:14:20;5.05;;;3.25;;
69319;SDS011;56467;53.502;49.248;2022-12-29T01:16:47;6.03;;;3.60;;
69319;SDS011;56467;53.502;49.248;2022-12-29T01:19:13;6.35;;;3.45;;
69319;SDS011;56467;53.502;49.248;2022-12-29T01:21:40;5.80;;;3.30;;
69319;SDS011;56467;53.502;49.248;2022-12-29T01:24:06;6.60;;;3.53;;
69319;SDS011;56467;53.502;49.248;2022-12-29T01:26:50;5.55;;;3.30;;
69319;SDS011;56467;53.502;49.248;2022-12-29T01:29:16;5.95;;;3.42;;
69319;SDS011;56467;53.502;49.248;2022-12-29T01:31:42;5.30;;;3.13;;
69319;SDS011;56467;53.502;49.248;2022-12-29T01:34:08;5.30;;;3.30;;
69319;SDS011;56467;53.502;49.248;2022-12-29T01:36:34;5.18;;;3.08;;
69319;SDS011;56467;53.502;49.248;2022-12-29T01:39:00;4.68;;;3.08;;
69319;SDS011;56467;53.502;49.248;2022-12-29T01:41:27;4.72;;;3.00;;
69319;SDS011;56467;53.502;49.248;2022-12-29T01:43:54;5.40;;;3.13;;
69319;SDS011;56467;53.502;49.248;2022-12-29T01:49:20;4.68;;;3.05;;
69319;SDS011;56467;53.502;49.248;2022-12-29T01:51:57;5.28;;;3.20;;
69319;SDS011;56467;53.502;49.248;2022-12-29T01:54:28;4.40;;;2.83;;
69319;SDS011;56467;53.502;49.248;2022-12-29T01:57:12;5.20;;;3.03;;
69319;SDS011;56467;53.502;49.248;2022-12-29T01:59:43;4.90;;;2.85;;
69319;SDS011;56467;53.502;49.248;2022-12-29T02:02:15;4.90;;;2.90;;
69319;SDS011;56467;53.502;49.248;2022-12-29T02:04:41;4.88;;;3.03;;
69319;SDS011;56467;53.502;49.248;2022-12-29T02:07:14;4.47;;;2.67;;
69319;SDS011;56467;53.502;49.248;2022-12-29T02:09:43;5.22;;;2.92;;
69319;SDS011;56467;53.502;49.248;2022-12-29T02:12:13;4.07;;;2.88;;
69319;SDS011;56467;53.502;49.248;2022-12-29T02:14:58;5.13;;;2.63;;
69319;SDS011;56467;53.502;49.248;2022-12-29T02:17:37;5.40;;;2.90;;
69319;SDS011;56467;53.502;49.248;2022-12-29T02:24:01;5.28;;;2.50;;
69319;SDS011;56467;53.502;49.248;2022-12-29T02:29:29;5.03;;;2.97;;
69319;SDS011;56467;53.502;49.248;2022-12-29T02:40:50;5.25;;;2.80;;
69319;SDS011;56467;53.502;49.248;2022-12-29T02:43:48;3.88;;;2.40;;
69319;SDS011;56467;53.502;49.248;2022-12-29T02:46:28;4.75;;;2.72;;
69319;SDS011;56467;53.502;49.248;2022-12-29T02:52:50;4.55;;;2.53;;
69319;SDS011;56467;53.502;49.248;2022-12-29T02:55:20;4.28;;;2.47;;
69319;SDS011;56467;53.502;49.248;2022-12-29T02:57:45;4.50;;;2.58;;
69319;SDS011;56467;53.502;49.248;2022-12-29T03:08:37;3.95;;;2.63;;
69319;SDS011;56467;53.502;49.248;2022-12-29T03:11:09;4.15;;;2.70;;
69319;SDS011;56467;53.502;49.248;2022-12-29T03:16:53;3.97;;;2.15;;
69319;SDS011;56467;53.502;49.248;2022-12-29T03:19:37;5.60;;;2.53;;
69319;SDS011;56467;53.502;49.248;2022-12-29T03:22:12;4.32;;;2.40;;
69319;SDS011;56467;53.502;49.248;2022-12-29T03:25:07;4.72;;;2.75;;
69319;SDS011;56467;53.502;49.248;2022-12-29T03:30:18;3.25;;;2.20;;
69319;SDS011;56467;53.502;49.248;2022-12-29T03:32:49;3.70;;;2.17;;
69319;SDS011;56467;53.502;49.248;2022-12-29T03:35:19;4.68;;;2.40;;
69319;SDS011;56467;53.502;49.248;2022-12-29T03:38:33;4.55;;;2.22;;
69319;SDS011;56467;53.502;49.248;2022-12-29T03:41:07;2.83;;;2.00;;
69319;SDS011;56467;53.502;49.248;2022-12-29T03:43:37;4.05;;;2.22;;
69319;SDS011;56467;53.502;49.248;2022-12-29T03:46:02;3.15;;;2.20;;
69319;SDS011;56467;53.502;49.248;2022-12-29T03:48:28;3.40;;;2.30;;
69319;SDS011;56467;53.502;49.248;2022-12-29T03:51:12;4.47;;;2.40;;
69319;SDS011;56467;53.502;49.248;2022-12-29T03:53:38;3.35;;;2.00;;
69319;SDS011;56467;53.502;49.248;2022-12-29T03:56:04;3.63;;;2.20;;
69319;SDS011;56467;53.502;49.248;2022-12-29T03:58:30;3.58;;;2.10;;
69319;SDS011;56467;53.502;49.248;2022-12-29T04:00:56;3.90;;;1.92;;
69319;SDS011;56467;53.502;49.248;2022-12-29T04:03:22;3.28;;;2.13;;
69319;SDS011;56467;53.502;49.248;2022-12-29T04:05:47;3.75;;;2.42;;
69319;SDS011;56467;53.502;49.248;2022-12-29T04:08:13;2.97;;;2.10;;
69319;SDS011;56467;53.502;49.248;2022-12-29T04:10:57;3.22;;;2.13;;
69319;SDS011;56467;53.502;49.248;2022-12-29T04:13:41;2.83;;;2.13;;
69319;SDS011;56467;53.502;49.248;2022-12-29T04:16:07;3.38;;;2.08;;
69319;SDS011;56467;53.502;49.248;2022-12-29T04:18:33;3.75;;;2.30;;
69319;SDS011;56467;53.502;49.248;2022-12-29T04:20:59;2.80;;;2.00;;
69319;SDS011;56467;53.502;49.248;2022-12-29T04:23:25;3.55;;;2.30;;
69319;SDS011;56467;53.502;49.248;2022-12-29T04:25:52;2.85;;;1.90;;
69319;SDS011;56467;53.502;49.248;2022-12-29T04:28:18;4.15;;;2.30;;
69319;SDS011;56467;53.502;49.248;2022-12-29T04:30:44;2.95;;;1.90;;
69319;SDS011;56467;53.502;49.248;2022-12-29T04:33:10;3.20;;;1.92;;
69319;SDS011;56467;53.502;49.248;2022-12-29T04:35:36;3.47;;;1.88;;
69319;SDS011;56467;53.502;49.248;2022-12-29T04:38:02;3.85;;;2.35;;
69319;SDS011;56467;53.502;49.248;2022-12-29T04:40:28;3.92;;;2.20;;
69319;SDS011;56467;53.502;49.248;2022-12-29T04:42:54;4.03;;;2.28;;
69319;SDS011;56467;53.502;49.248;2022-12-29T04:45:21;4.07;;;2.05;;
69319;SDS011;56467;53.502;49.248;2022-12-29T04:47:47;3.28;;;2.00;;
69319;SDS011;56467;53.502;49.248;2022-12-29T04:50:12;3.67;;;2.20;;
69319;SDS011;56467;53.502;49.248;2022-12-29T04:52:38;2.60;;;1.95;;
69319;SDS011;56467;53.502;49.248;2022-12-29T04:55:04;3.42;;;2.03;;
69319;SDS011;56467;53.502;49.248;2022-12-29T04:57:30;2.78;;;1.80;;
69319;SDS011;56467;53.502;49.248;2022-12-29T04:59:56;3.30;;;2.00;;
69319;SDS011;56467;53.502;49.248;2022-12-29T05:02:22;3.30;;;1.77;;
69319;SDS011;56467;53.502;49.248;2022-12-29T05:04:48;3.08;;;2.05;;
69319;SDS011;56467;53.502;49.248;2022-12-29T05:07:14;3.33;;;1.90;;
69319;SDS011;56467;53.502;49.248;2022-12-29T05:09:40;3.70;;;2.03;;
69319;SDS011;56467;53.502;49.248;2022-12-29T05:12:06;2.67;;;1.90;;
69319;SDS011;56467;53.502;49.248;2022-12-29T05:14:32;3.22;;;2.15;;
69319;SDS011;56467;53.502;49.248;2022-12-29T05:16:57;2.53;;;1.70;;
69319;SDS011;56467;53.502;49.248;2022-12-29T05:19:23;3.40;;;1.90;;
69319;SDS011;56467;53.502;49.248;2022-12-29T05:21:49;2.90;;;1.92;;
69319;SDS011;56467;53.502;49.248;2022-12-29T05:24:14;2.97;;;1.90;;
69319;SDS011;56467;53.502;49.248;2022-12-29T05:26:40;2.97;;;1.90;;
69319;SDS011;56467;53.502;49.248;2022-12-29T05:29:07;3.30;;;1.80;;
69319;SDS011;56467;53.502;49.248;2022-12-29T05:31:51;2.45;;;1.67;;
69319;SDS011;56467;53.502;49.248;2022-12-29T05:34:35;3.13;;;2.00;;
69319;SDS011;56467;53.502;49.248;2022-12-29T05:37:00;2.85;;;2.00;;
69319;SDS011;56467;53.502;49.248;2022-12-29T05:39:27;2.72;;;1.80;;
69319;SDS011;56467;53.502;49.248;2022-12-29T05:41:54;2.90;;;1.85;;
69319;SDS011;56467;53.502;49.248;2022-12-29T05:44:19;3.50;;;1.75;;
69319;SDS011;56467;53.502;49.248;2022-12-29T05:46:45;2.92;;;1.95;;
69319;SDS011;56467;53.502;49.248;2022-12-29T05:49:11;2.90;;;1.90;;
69319;SDS011;56467;53.502;49.248;2022-12-29T05:51:55;3.45;;;2.00;;
69319;SDS011;56467;53.502;49.248;2022-12-29T05:54:21;3.35;;;1.90;;
69319;SDS011;56467;53.502;49.248;2022-12-29T05:56:47;3.10;;;1.88;;
69319;SDS011;56467;53.502;49.248;2022-12-29T05:59:12;3.45;;;1.80;;
69319;SDS011;56467;53.502;49.248;2022-12-29T06:01:38;4.03;;;2.10;;
69319;SDS011;56467;53.502;49.248;2022-12-29T06:04:04;2.97;;;2.03;;
69319;SDS011;56467;53.502;49.248;2022-12-29T06:06:29;3.15;;;2.08;;
69319;SDS011;56467;53.502;49.248;2022-12-29T06:08:55;2.85;;;2.03;;
69319;SDS011;56467;53.502;49.248;2022-12-29T06:11:21;2.47;;;1.75;;
69319;SDS011;56467;53.502;49.248;2022-12-29T06:13:46;3.70;;;2.00;;
69319;SDS011;56467;53.502;49.248;2022-12-29T06:16:12;4.10;;;1.98;;
69319;SDS011;56467;53.502;49.248;2022-12-29T06:18:38;2.97;;;1.65;;
69319;SDS011;56467;53.502;49.248;2022-12-29T06:21:22;2.47;;;1.65;;
69319;SDS011;56467;53.502;49.248;2022-12-29T06:23:47;3.08;;;2.03;;
69319;SDS011;56467;53.502;49.248;2022-12-29T06:26:13;2.85;;;1.83;;
69319;SDS011;56467;53.502;49.248;2022-12-29T06:28:39;2.33;;;1.70;;
69319;SDS011;56467;53.502;49.248;2022-12-29T06:31:04;2.95;;;1.70;;
69319;SDS011;56467;53.502;49.248;2022-12-29T06:33:33;3.38;;;1.90;;
69319;SDS011;56467;53.502;49.248;2022-12-29T06:35:59;2.78;;;1.88;;
69319;SDS011;56467;53.502;49.248;2022-12-29T06:38:43;2.80;;;1.90;;
69319;SDS011;56467;53.502;49.248;2022-12-29T06:41:08;2.65;;;1.80;;
69319;SDS011;56467;53.502;49.248;2022-12-29T06:43:34;2.65;;;1.60;;
69319;SDS011;56467;53.502;49.248;2022-12-29T06:46:03;3.30;;;1.92;;
69319;SDS011;56467;53.502;49.248;2022-12-29T06:48:29;3.13;;;1.70;;
69319;SDS011;56467;53.502;49.248;2022-12-29T06:50:55;2.38;;;1.70;;
69319;SDS011;56467;53.502;49.248;2022-12-29T06:53:20;3.03;;;1.80;;
69319;SDS011;56467;53.502;49.248;2022-12-29T06:55:46;2.85;;;1.75;;
69319;SDS011;56467;53.502;49.248;2022-12-29T06:58:12;3.28;;;1.90;;
69319;SDS011;56467;53.502;49.248;2022-12-29T07:00:41;2.90;;;1.90;;
69319;SDS011;56467;53.502;49.248;2022-12-29T07:03:06;1.98;;;1.58;;
69319;SDS011;56467;53.502;49.248;2022-12-29T07:05:32;3.28;;;1.80;;
69319;SDS011;56467;53.502;49.248;2022-12-29T07:07:58;3.08;;;2.00;;
69319;SDS011;56467;53.502;49.248;2022-12-29T07:10:25;2.92;;;1.58;;
69319;SDS011;56467;53.502;49.248;2022-12-29T07:12:54;3.88;;;1.80;;
69319;SDS011;56467;53.502;49.248;2022-12-29T07:15:19;3.28;;;1.67;;
69319;SDS011;56467;53.502;49.248;2022-12-29T07:18:04;3.17;;;1.98;;
69319;SDS011;56467;53.502;49.248;2022-12-29T07:20:30;3.17;;;1.70;;
69319;SDS011;56467;53.502;49.248;2022-12-29T07:22:56;3.38;;;2.00;;
69319;SDS011;56467;53.502;49.248;2022-12-29T07:25:22;2.65;;;1.80;;
69319;SDS011;56467;53.502;49.248;2022-12-29T07:27:48;2.95;;;1.83;;
69319;SDS011;56467;53.502;49.248;2022-12-29T07:30:14;2.60;;;1.60;;
69319;SDS011;56467;53.502;49.248;2022-12-29T07:32:43;2.80;;;1.70;;
69319;SDS011;56467;53.502;49.248;2022-12-29T07:35:12;2.58;;;1.70;;
69319;SDS011;56467;53.502;49.248;2022-12-29T07:37:39;3.53;;;1.80;;
69319;SDS011;56467;53.502;49.248;2022-12-29T07:40:08;3.25;;;1.85;;
69319;SDS011;56467;53.502;49.248;2022-12-29T07:45:21;2.58;;;1.80;;
69319;SDS011;56467;53.502;49.248;2022-12-29T07:47:49;2.47;;;1.60;;
69319;SDS011;56467;53.502;49.248;2022-12-29T07:50:16;1.95;;;1.50;;
69319;SDS011;56467;53.502;49.248;2022-12-29T07:52:42;2.85;;;1.90;;
69319;SDS011;56467;53.502;49.248;2022-12-29T07:55:08;2.90;;;1.80;;
69319;SDS011;56467;53.502;49.248;2022-12-29T07:57:34;2.28;;;1.55;;
69319;SDS011;56467;53.502;49.248;2022-12-29T07:59:59;2.75;;;2.00;;
69319;SDS011;56467;53.502;49.248;2022-12-29T08:02:25;3.10;;;1.63;;
69319;SDS011;56467;53.502;49.248;2022-12-29T08:04:51;3.20;;;1.70;;
69319;SDS011;56467;53.502;49.248;2022-12-29T08:07:17;2.30;;;1.75;;
69319;SDS011;56467;53.502;49.248;2022-12-29T08:09:43;2.53;;;1.77;;
69319;SDS011;56467;53.502;49.248;2022-12-29T08:12:09;2.58;;;1.60;;
69319;SDS011;56467;53.502;49.248;2022-12-29T08:14:36;2.35;;;1.65;;
69319;SDS011;56467;53.502;49.248;2022-12-29T08:17:01;2.65;;;1.65;;
69319;SDS011;56467;53.502;49.248;2022-12-29T08:19:27;3.60;;;1.70;;
69319;SDS011;56467;53.502;49.248;2022-12-29T08:21:53;2.47;;;1.70;;
69319;SDS011;56467;53.502;49.248;2022-12-29T08:24:19;2.53;;;1.50;;
69319;SDS011;56467;53.502;49.248;2022-12-29T08:27:03;3.00;;;1.80;;
69319;SDS011;56467;53.502;49.248;2022-12-29T08:29:47;3.33;;;1.73;;
69319;SDS011;56467;53.502;49.248;2022-12-29T08:32:13;1.98;;;1.50;;
69319;SDS011;56467;53.502;49.248;2022-12-29T08:34:39;2.33;;;1.80;;
69319;SDS011;56467;53.502;49.248;2022-12-29T08:37:05;2.40;;;1.80;;
69319;SDS011;56467;53.502;49.248;2022-12-29T08:39:31;2.55;;;1.60;;
69319;SDS011;56467;53.502;49.248;2022-12-29T08:41:57;3.45;;;1.55;;
69319;SDS011;56467;53.502;49.248;2022-12-29T08:44:22;2.25;;;1.50;;
69319;SDS011;56467;53.502;49.248;2022-12-29T08:46:49;2.85;;;1.73;;
69319;SDS011;56467;53.502;49.248;2022-12-29T08:49:15;3.00;;;1.70;;
69319;SDS011;56467;53.502;49.248;2022-12-29T08:51:40;3.83;;;1.80;;
69319;SDS011;56467;53.502;49.248;2022-12-29T08:54:06;4.47;;;2.00;;
69319;SDS011;56467;53.502;49.248;2022-12-29T08:56:32;4.35;;;1.70;;
69319;SDS011;56467;53.502;49.248;2022-12-29T08:59:16;3.38;;;1.90;;
69319;SDS011;56467;53.502;49.248;2022-12-29T09:01:42;3.97;;;1.92;;
69319;SDS011;56467;53.502;49.248;2022-12-29T09:04:08;5.07;;;1.90;;
69319;SDS011;56467;53.502;49.248;2022-12-29T09:06:33;4.13;;;2.08;;
69319;SDS011;56467;53.502;49.248;2022-12-29T09:08:59;3.45;;;1.80;;
69319;SDS011;56467;53.502;49.248;2022-12-29T09:11:25;4.15;;;1.85;;
69319;SDS011;56467;53.502;49.248;2022-12-29T09:13:52;4.03;;;1.80;;
69319;SDS011;56467;53.502;49.248;2022-12-29T09:16:19;3.70;;;1.83;;
69319;SDS011;56467;53.502;49.248;2022-12-29T09:18:46;4.72;;;2.13;;
69319;SDS011;56467;53.502;49.248;2022-12-29T09:21:12;2.85;;;1.85;;
69319;SDS011;56467;53.502;49.248;2022-12-29T09:23:38;4.32;;;1.90;;
69319;SDS011;56467;53.502;49.248;2022-12-29T09:26:07;4.43;;;2.03;;
69319;SDS011;56467;53.502;49.248;2022-12-29T09:28:33;4.50;;;2.13;;
69319;SDS011;56467;53.502;49.248;2022-12-29T09:30:59;4.53;;;2.00;;
69319;SDS011;56467;53.502;49.248;2022-12-29T09:33:34;2.92;;;1.88;;
69319;SDS011;56467;53.502;49.248;2022-12-29T09:35:59;3.85;;;2.03;;
69319;SDS011;56467;53.502;49.248;2022-12-29T09:38:26;3.35;;;1.90;;
69319;SDS011;56467;53.502;49.248;2022-12-29T09:40:53;6.65;;;1.83;;
69319;SDS011;56467;53.502;49.248;2022-12-29T09:43:44;4.82;;;2.08;;
69319;SDS011;56467;53.502;49.248;2022-12-29T09:46:24;3.85;;;2.10;;
69319;SDS011;56467;53.502;49.248;2022-12-29T09:48:55;3.58;;;1.80;;
69319;SDS011;56467;53.502;49.248;2022-12-29T09:51:22;3.47;;;1.85;;
69319;SDS011;56467;53.502;49.248;2022-12-29T09:53:53;3.75;;;1.90;;
69319;SDS011;56467;53.502;49.248;2022-12-29T09:56:24;4.72;;;2.08;;
69319;SDS011;56467;53.502;49.248;2022-12-29T09:58:59;3.28;;;1.83;;
69319;SDS011;56467;53.502;49.248;2022-12-29T10:04:06;4.30;;;1.80;;
69319;SDS011;56467;53.502;49.248;2022-12-29T10:06:45;3.08;;;1.83;;
69319;SDS011;56467;53.502;49.248;2022-12-29T10:12:32;3.90;;;1.83;;
69319;SDS011;56467;53.502;49.248;2022-12-29T10:23:54;3.15;;;2.05;;
69319;SDS011;56467;53.502;49.248;2022-12-29T10:26:23;3.97;;;1.73;;
69319;SDS011;56467;53.502;49.248;2022-12-29T10:28:56;3.90;;;1.90;;
69319;SDS011;56467;53.502;49.248;2022-12-29T10:31:50;2.95;;;1.92;;
69319;SDS011;56467;53.502;49.248;2022-12-29T10:34:27;3.53;;;1.90;;
69319;SDS011;56467;53.502;49.248;2022-12-29T10:39:56;4.28;;;1.90;;
69319;SDS011;56467;53.502;49.248;2022-12-29T10:45:02;3.97;;;2.10;;
69319;SDS011;56467;53.502;49.248;2022-12-29T10:47:32;4.15;;;1.90;;
69319;SDS011;56467;53.502;49.248;2022-12-29T10:50:03;4.07;;;2.03;;
69319;SDS011;56467;53.502;49.248;2022-12-29T10:52:30;3.22;;;1.90;;
69319;SDS011;56467;53.502;49.248;2022-12-29T10:55:19;3.65;;;2.30;;
69319;SDS011;56467;53.502;49.248;2022-12-29T10:57:53;3.08;;;2.00;;
69319;SDS011;56467;53.502;49.248;2022-12-29T11:00:22;3.50;;;2.15;;
69319;SDS011;56467;53.502;49.248;2022-12-29T11:02:56;4.60;;;2.40;;
69319;SDS011;56467;53.502;49.248;2022-12-29T11:05:40;4.28;;;2.10;;
69319;SDS011;56467;53.502;49.248;2022-12-29T11:08:17;4.95;;;2.40;;
69319;SDS011;56467;53.502;49.248;2022-12-29T11:10:46;3.55;;;2.20;;
69319;SDS011;56467;53.502;49.248;2022-12-29T11:13:26;4.25;;;2.13;;
69319;SDS011;56467;53.502;49.248;2022-12-29T11:15:57;4.15;;;1.90;;
69319;SDS011;56467;53.502;49.248;2022-12-29T11:18:26;4.75;;;2.30;;
69319;SDS011;56467;53.502;49.248;2022-12-29T11:20:58;4.50;;;2.00;;
69319;SDS011;56467;53.502;49.248;2022-12-29T11:23:30;2.83;;;1.77;;
69319;SDS011;56467;53.502;49.248;2022-12-29T11:29:03;2.83;;;1.90;;
69319;SDS011;56467;53.502;49.248;2022-12-29T11:31:31;3.85;;;2.10;;
69319;SDS011;56467;53.502;49.248;2022-12-29T11:34:06;3.50;;;2.30;;
69319;SDS011;56467;53.502;49.248;2022-12-29T11:36:53;4.13;;;2.03;;
69319;SDS011;56467;53.502;49.248;2022-12-29T11:42:22;3.30;;;2.10;;
69319;SDS011;56467;53.502;49.248;2022-12-29T11:44:57;4.28;;;2.25;;
69319;SDS011;56467;53.502;49.248;2022-12-29T11:47:31;3.63;;;2.10;;
69319;SDS011;56467;53.502;49.248;2022-12-29T11:50:07;3.67;;;2.30;;
69319;SDS011;56467;53.502;49.248;2022-12-29T11:53:24;3.22;;;1.88;;
69319;SDS011;56467;53.502;49.248;2022-12-29T11:56:03;5.03;;;2.10;;
69319;SDS011;56467;53.502;49.248;2022-12-29T11:58:34;3.72;;;2.00;;
69319;SDS011;56467;53.502;49.248;2022-12-29T12:01:24;3.80;;;1.90;;
69319;SDS011;56467;53.502;49.248;2022-12-29T12:04:15;2.90;;;1.80;;
69319;SDS011;56467;53.502;49.248;2022-12-29T12:06:48;3.40;;;2.17;;
69319;SDS011;56467;53.502;49.248;2022-12-29T12:09:43;4.50;;;2.50;;
69319;SDS011;56467;53.502;49.248;2022-12-29T12:12:38;7.97;;;4.00;;
69319;SDS011;56467;53.502;49.248;2022-12-29T12:15:34;9.60;;;4.97;;
69319;SDS011;56467;53.502;49.248;2022-12-29T12:18:26;12.20;;;5.82;;
69319;SDS011;56467;53.502;49.248;2022-12-29T12:20:58;13.53;;;6.33;;
69319;SDS011;56467;53.502;49.248;2022-12-29T12:23:53;14.45;;;7.05;;
69319;SDS011;56467;53.502;49.248;2022-12-29T12:26:46;12.80;;;6.68;;
69319;SDS011;56467;53.502;49.248;2022-12-29T12:29:14;14.93;;;7.22;;
69319;SDS011;56467;53.502;49.248;2022-12-29T12:34:35;14.02;;;6.90;;
69319;SDS011;56467;53.502;49.248;2022-12-29T12:40:17;12.35;;;6.50;;
69319;SDS011;56467;53.502;49.248;2022-12-29T12:57:34;11.52;;;6.00;;
69319;SDS011;56467;53.502;49.248;2022-12-29T13:00:23;11.82;;;6.32;;
69319;SDS011;56467;53.502;49.248;2022-12-29T13:16:44;19.08;;;9.80;;
69319;SDS011;56467;53.502;49.248;2022-12-29T13:19:25;18.27;;;9.60;;
69319;SDS011;56467;53.502;49.248;2022-12-29T13:22:08;18.35;;;9.55;;
69319;SDS011;56467;53.502;49.248;2022-12-29T13:30:39;14.48;;;8.27;;
69319;SDS011;56467;53.502;49.248;2022-12-29T13:36:26;13.75;;;7.50;;
69319;SDS011;56467;53.502;49.248;2022-12-29T13:42:02;14.67;;;7.20;;
69319;SDS011;56467;53.502;49.248;2022-12-29T13:47:00;13.05;;;6.85;;
69319;SDS011;56467;53.502;49.248;2022-12-29T13:49:37;13.95;;;7.30;;
69319;SDS011;56467;53.502;49.248;2022-12-29T13:58:03;11.65;;;6.85;;
69319;SDS011;56467;53.502;49.248;2022-12-29T14:00:45;12.38;;;6.45;;
69319;SDS011;56467;53.502;49.248;2022-12-29T14:06:12;12.35;;;5.75;;
69319;SDS011;56467;53.502;49.248;2022-12-29T14:11:37;11.52;;;6.00;;
69319;SDS011;56467;53.502;49.248;2022-12-29T14:14:12;11.15;;;6.13;;
69319;SDS011;56467;53.502;49.248;2022-12-29T14:16:46;10.95;;;6.03;;
69319;SDS011;56467;53.502;49.248;2022-12-29T14:19:15;9.60;;;5.47;;
69319;SDS011;56467;53.502;49.248;2022-12-29T14:21:51;9.38;;;5.28;;
69319;SDS011;56467;53.502;49.248;2022-12-29T14:34:46;10.27;;;5.22;;
69319;SDS011;56467;53.502;49.248;2022-12-29T14:37:26;9.73;;;5.05;;
69319;SDS011;56467;53.502;49.248;2022-12-29T14:43:00;8.43;;;4.88;;
69319;SDS011;56467;53.502;49.248;2022-12-29T14:45:27;9.40;;;5.07;;
69319;SDS011;56467;53.502;49.248;2022-12-29T14:47:54;10.50;;;5.10;;
69319;SDS011;56467;53.502;49.248;2022-12-29T14:50:41;8.85;;;4.82;;
69319;SDS011;56467;53.502;49.248;2022-12-29T14:53:40;8.68;;;4.80;;
69319;SDS011;56467;53.502;49.248;2022-12-29T14:59:02;11.55;;;6.18;;
69319;SDS011;56467;53.502;49.248;2022-12-29T15:01:38;13.50;;;7.00;;
69319;SDS011;56467;53.502;49.248;2022-12-29T15:04:35;13.52;;;7.22;;
69319;SDS011;56467;53.502;49.248;2022-12-29T15:07:02;15.23;;;8.02;;
69319;SDS011;56467;53.502;49.248;2022-12-29T15:09:36;15.80;;;8.05;;
69319;SDS011;56467;53.502;49.248;2022-12-29T15:14:49;16.83;;;9.05;;
69319;SDS011;56467;53.502;49.248;2022-12-29T15:17:26;16.23;;;8.85;;
69319;SDS011;56467;53.502;49.248;2022-12-29T15:19:54;15.15;;;8.30;;
69319;SDS011;56467;53.502;49.248;2022-12-29T15:22:21;17.52;;;9.07;;
69319;SDS011;56467;53.502;49.248;2022-12-29T15:24:49;15.95;;;8.63;;
69319;SDS011;56467;53.502;49.248;2022-12-29T15:27:19;15.00;;;8.32;;
69319;SDS011;56467;53.502;49.248;2022-12-29T15:29:48;13.65;;;7.82;;
69319;SDS011;56467;53.502;49.248;2022-12-29T15:32:23;14.45;;;8.02;;
69319;SDS011;56467;53.502;49.248;2022-12-29T15:34:51;16.38;;;8.05;;
69319;SDS011;56467;53.502;49.248;2022-12-29T15:37:31;13.93;;;8.00;;
69319;SDS011;56467;53.502;49.248;2022-12-29T15:40:00;13.68;;;7.55;;
69319;SDS011;56467;53.502;49.248;2022-12-29T15:45:15;14.00;;;7.60;;
69319;SDS011;56467;53.502;49.248;2022-12-29T15:47:42;13.48;;;7.50;;
69319;SDS011;56467;53.502;49.248;2022-12-29T15:52:45;13.80;;;7.50;;
69319;SDS011;56467;53.502;49.248;2022-12-29T15:55:21;13.60;;;6.93;;
69319;SDS011;56467;53.502;49.248;2022-12-29T15:58:23;11.98;;;6.80;;
69319;SDS011;56467;53.502;49.248;2022-12-29T16:00:52;13.80;;;6.93;;
69319;SDS011;56467;53.502;49.248;2022-12-29T16:03:20;13.32;;;6.72;;
69319;SDS011;56467;53.502;49.248;2022-12-29T16:05:55;11.60;;;6.82;;
69319;SDS011;56467;53.502;49.248;2022-12-29T16:08:35;12.70;;;7.00;;
69319;SDS011;56467;53.502;49.248;2022-12-29T16:11:07;11.32;;;6.30;;
69319;SDS011;56467;53.502;49.248;2022-12-29T16:13:48;11.18;;;6.32;;
69319;SDS011;56467;53.502;49.248;2022-12-29T16:16:37;12.95;;;6.53;;
69319;SDS011;56467;53.502;49.248;2022-12-29T16:21:54;9.95;;;6.13;;
69319;SDS011;56467;53.502;49.248;2022-12-29T16:24:23;11.02;;;6.15;;
69319;SDS011;56467;53.502;49.248;2022-12-29T16:29:32;10.45;;;6.13;;
69319;SDS011;56467;53.502;49.248;2022-12-29T16:31:59;10.13;;;5.43;;
69319;SDS011;56467;53.502;49.248;2022-12-29T16:34:31;10.15;;;5.80;;
69319;SDS011;56467;53.502;49.248;2022-12-29T16:37:05;11.40;;;5.70;;
69319;SDS011;56467;53.502;49.248;2022-12-29T16:39:49;10.68;;;5.72;;
69319;SDS011;56467;53.502;49.248;2022-12-29T16:50:33;9.38;;;5.53;;
69319;SDS011;56467;53.502;49.248;2022-12-29T16:53:00;9.35;;;5.10;;
69319;SDS011;56467;53.502;49.248;2022-12-29T16:55:28;9.48;;;5.32;;
69319;SDS011;56467;53.502;49.248;2022-12-29T16:57:54;10.15;;;5.30;;
69319;SDS011;56467;53.502;49.248;2022-12-29T17:00:25;8.48;;;4.82;;
69319;SDS011;56467;53.502;49.248;2022-12-29T17:02:54;8.73;;;5.00;;
69319;SDS011;56467;53.502;49.248;2022-12-29T17:05:23;8.52;;;4.80;;
69319;SDS011;56467;53.502;49.248;2022-12-29T17:07:49;8.30;;;4.88;;
69319;SDS011;56467;53.502;49.248;2022-12-29T17:10:16;7.63;;;4.60;;
69319;SDS011;56467;53.502;49.248;2022-12-29T17:12:42;8.40;;;5.00;;
69319;SDS011;56467;53.502;49.248;2022-12-29T17:15:21;9.13;;;5.00;;
69319;SDS011;56467;53.502;49.248;2022-12-29T17:17:52;8.63;;;4.60;;
69319;SDS011;56467;53.502;49.248;2022-12-29T17:20:21;7.93;;;4.68;;
69319;SDS011;56467;53.502;49.248;2022-12-29T17:22:51;8.80;;;4.80;;
69319;SDS011;56467;53.502;49.248;2022-12-29T17:25:28;8.80;;;4.63;;
69319;SDS011;56467;53.502;49.248;2022-12-29T17:28:01;7.18;;;4.32;;
69319;SDS011;56467;53.502;49.248;2022-12-29T17:30:46;7.78;;;4.63;;
69319;SDS011;56467;53.502;49.248;2022-12-29T17:33:13;7.03;;;4.18;;
69319;SDS011;56467;53.502;49.248;2022-12-29T17:35:44;6.72;;;4.18;;
69319;SDS011;56467;53.502;49.248;2022-12-29T17:38:26;7.72;;;4.53;;
69319;SDS011;56467;53.502;49.248;2022-12-29T17:40:58;7.88;;;4.50;;
69319;SDS011;56467;53.502;49.248;2022-12-29T17:43:24;7.63;;;4.22;;
69319;SDS011;56467;53.502;49.248;2022-12-29T17:45:53;6.60;;;4.10;;
69319;SDS011;56467;53.502;49.248;2022-12-29T17:48:20;7.55;;;4.50;;